Time;durP1;ratioP1;P1;durP2;ratioP2;P2;SDS_P1;SDS_P2;PMS_P1;PMS_P2;Temp;Humidity;BMP_temperature;BMP_pressure;BME280_temperature;BME280_humidity;BME280_pressure;Samples;Min_cycle;Max_cycle;Signal;HPM_P1;HPM_P2
2022/06/05 00:02:17;;;;;;;12.20;8.30;;;;;;;;;;5033304;28;20024;-65
2022/06/05 00:05:10;;;;;;;11.23;6.57;;;;;;;;;;5026107;28;20034;-66
2022/06/05 00:07:46;;;;;;;11.15;7.03;;;;;;;;;;4984205;28;20042;-66
2022/06/05 00:10:22;;;;;;;11.23;6.10;;;;;;;;;;5019888;28;20037;-65
2022/06/05 00:12:50;;;;;;;9.60;6.57;;;;;;;;;;5033604;28;20025;-66
2022/06/05 00:15:17;;;;;;;10.88;8.00;;;;;;;;;;5033448;28;20021;-65
2022/06/05 00:17:43;;;;;;;12.80;7.05;;;;;;;;;;5033522;28;20049;-66
2022/06/05 00:20:10;;;;;;;9.27;6.22;;;;;;;;;;5033749;28;20113;-66
2022/06/05 00:22:38;;;;;;;9.25;6.43;;;;;;;;;;5033977;28;20468;-66
2022/06/05 00:25:04;;;;;;;13.43;7.72;;;;;;;;;;5033252;28;20117;-66
2022/06/05 00:27:53;;;;;;;13.35;7.13;;;;;;;;;;5033702;28;20059;-66
2022/06/05 00:30:29;;;;;;;7.40;6.28;;;;;;;;;;5025429;28;20045;-66
2022/06/05 00:33:14;;;;;;;17.63;11.68;;;;;;;;;;5030283;28;20035;-66
2022/06/05 00:35:50;;;;;;;13.38;8.23;;;;;;;;;;5025216;28;20018;-66
2022/06/05 00:38:25;;;;;;;10.15;6.90;;;;;;;;;;5032860;28;20029;-65
2022/06/05 00:41:09;;;;;;;11.68;7.88;;;;;;;;;;5032213;28;20068;-66
2022/06/05 00:43:36;;;;;;;11.23;8.57;;;;;;;;;;5032875;28;20029;-66
2022/06/05 00:46:03;;;;;;;11.13;6.13;;;;;;;;;;5032934;28;20052;-67
2022/06/05 00:48:29;;;;;;;12.18;6.82;;;615.30;2432.00;;;;;;5033200;28;20014;-67
2022/06/05 00:50:54;;;;;;;10.75;7.75;;;615.20;2432.00;;;;;;5014837;28;20068;-67
2022/06/05 00:53:21;;;;;;;11.73;6.60;;;;;;;;;;5032676;28;20487;-66
2022/06/05 00:55:49;;;;;;;10.05;6.50;;;;;;;;;;5032799;28;20027;-66
2022/06/05 00:58:15;;;;;;;10.23;6.30;;;;;;;;;;5033078;28;20436;-66
2022/06/05 01:00:44;;;;;;;14.27;7.35;;;;;;;;;;5032977;28;20029;-67
2022/06/05 01:03:11;;;;;;;12.20;7.03;;;;;;;;;;5032525;28;20068;-66
2022/06/05 01:05:37;;;;;;;12.75;7.30;;;;;;;;;;5032570;28;20045;-66
2022/06/05 01:08:04;;;;;;;10.18;6.50;;;;;;;;;;5032483;28;20014;-66
2022/06/05 01:10:46;;;;;;;12.95;7.50;;;;;;;;;;5032402;28;20112;-66
2022/06/05 01:13:15;;;;;;;12.20;7.20;;;;;;;;;;5032399;28;20484;-66
2022/06/05 01:16:07;;;;;;;10.48;6.88;;;615.10;2432.00;;;;;;5028862;28;20041;-66
2022/06/05 01:18:41;;;;;;;12.40;7.65;;;615.00;2432.00;;;;;;5020352;28;20022;-68
2022/06/05 01:21:38;;;;;;;10.32;6.15;;;615.00;2432.00;;;;;;5024652;28;20022;-68
2022/06/05 01:24:06;;;;;;;10.90;6.28;;;615.10;2432.00;;;;;;5012947;28;20485;-68
2022/06/05 01:26:46;;;;;;;8.38;5.88;;;615.10;2432.00;;;;;;5013231;28;20041;-68
2022/06/05 01:29:27;;;;;;;13.07;6.70;;;615.10;2432.00;;;;;;5040429;28;20029;-67
2022/06/05 01:31:56;;;;;;;10.32;5.55;;;;;;;;;;5052916;28;20475;-67
2022/06/05 01:34:42;;;;;;;11.25;5.88;;;614.80;2432.00;;;;;;5052947;28;20070;-67
2022/06/05 01:37:29;;;;;;;9.50;5.93;;;614.80;2432.00;;;;;;5052948;28;20028;-67
2022/06/05 01:40:09;;;;;;;6.93;5.80;;;614.90;2432.00;;;;;;5053000;28;20100;-68
2022/06/05 01:42:39;;;;;;;8.65;6.75;;;614.90;2432.00;;;;;;5052945;28;20415;-67
2022/06/05 01:45:25;;;;;;;7.97;5.68;;;614.90;2432.00;;;;;;5052945;28;20098;-67
2022/06/05 01:47:54;;;;;;;8.85;5.88;;;614.80;2432.00;;;;;;5052448;28;20066;-67
2022/06/05 01:50:27;;;;;;;11.50;6.80;;;614.90;2432.00;;;;;;5052652;28;20033;-67
2022/06/05 01:53:51;;;;;;;9.45;6.18;;;614.90;2432.00;;;;;;5052721;28;20071;-67
2022/06/05 01:56:40;;;;;;;9.68;5.93;;;614.90;2432.00;;;;;;4971871;28;20046;-68
2022/06/05 01:59:29;;;;;;;12.15;5.93;;;614.90;2432.00;;;;;;4963645;28;20065;-68
2022/06/05 02:01:57;;;;;;;10.25;6.07;;;;;;;;;;4958326;28;20039;-70
2022/06/05 02:04:28;;;;;;;13.43;7.35;;;;;;;;;;4952817;28;20426;-68
2022/06/05 02:06:57;;;;;;;10.52;6.00;;;;;;;;;;4958039;28;20051;-68
2022/06/05 02:09:30;;;;;;;9.00;5.55;;;;;;;;;;4952521;28;20027;-67
2022/06/05 02:11:56;;;;;;;9.00;6.40;;;;;;;;;;4952602;28;20039;-68
2022/06/05 02:14:22;;;;;;;9.65;6.03;;;;;;;;;;4952536;29;20530;-68
2022/06/05 02:16:48;;;;;;;10.38;6.38;;;;;;;;;;4952576;29;20038;-68
2022/06/05 02:19:16;;;;;;;7.82;5.88;;;;;;;;;;4951815;29;20452;-66
2022/06/05 02:21:42;;;;;;;8.63;6.30;;;;;;;;;;4952291;29;20035;-67
2022/06/05 02:24:10;;;;;;;12.65;7.07;;;;;;;;;;4954044;28;20047;-66
2022/06/05 02:26:36;;;;;;;13.45;8.02;;;;;;;;;;4956191;29;20060;-67
2022/06/05 02:29:04;;;;;;;14.43;6.40;;;;;;;;;;4955950;29;20066;-67
2022/06/05 02:31:37;;;;;;;10.05;5.75;;;;;;;;;;4976195;28;20041;-66
2022/06/05 02:34:16;;;;;;;9.85;5.93;;;;;;;;;;5016050;28;20113;-67
2022/06/05 02:36:48;;;;;;;9.95;6.32;;;;;;;;;;5016269;28;20037;-67
2022/06/05 02:39:17;;;;;;;10.32;5.45;;;;;;;;;;5016287;28;20036;-67
2022/06/05 02:41:48;;;;;;;7.13;5.70;;;;;;;;;;5016178;28;20144;-67
2022/06/05 02:44:37;;;;;;;8.30;5.95;;;;;;;;;;5016064;28;20026;-67
2022/06/05 02:47:09;;;;;;;7.88;5.65;;;;;;;;;;5016096;28;20030;-68
2022/06/05 02:49:44;;;;;;;9.23;5.93;;;;;;;;;;5016089;28;20164;-66
2022/06/05 02:52:10;;;;;;;9.52;5.68;;;;;;;;;;5016188;28;20032;-67
2022/06/05 02:54:41;;;;;;;7.80;6.38;;;;;;;;;;5015870;28;20028;-67
2022/06/05 02:57:07;;;;;;;;;;;;;;;;;;5017247;28;20038;-67
2022/06/05 02:59:34;;;;;;;9.65;6.10;;;;;;;;;;5015904;28;20279;-66
2022/06/05 03:04:44;;;;;;;10.30;6.30;;;;;;;;;;5015702;28;20040;-67
2022/06/05 03:07:10;;;;;;;10.70;6.43;;;;;;;;;;5015632;28;20041;-67
2022/06/05 03:09:36;;;;;;;6.38;5.32;;;;;;;;;;5015848;28;20044;-67
2022/06/05 03:12:03;;;;;;;8.30;5.97;;;;;;;;;;4998117;28;20033;-66
2022/06/05 03:14:29;;;;;;;9.02;5.78;;;;;;;;;;5015835;28;20034;-67
2022/06/05 03:16:55;;;;;;;7.50;5.70;;;;;;;;;;5015497;28;20021;-67
2022/06/05 03:19:22;;;;;;;8.98;6.38;;;;;;;;;;4997354;28;20134;-66
2022/06/05 03:21:48;;;;;;;9.25;6.05;;;;;;;;;;5015694;28;20037;-66
2022/06/05 03:24:14;;;;;;;8.52;5.78;;;;;;;;;;5015045;28;20081;-67
2022/06/05 03:26:40;;;;;;;11.73;5.75;;;;;;;;;;5015207;28;20046;-64
2022/06/05 03:29:07;;;;;;;10.27;6.63;;;;;;;;;;5015282;28;20045;-67
2022/06/05 03:31:34;;;;;;;10.45;6.03;;;;;;;;;;5015198;28;20026;-67
2022/06/05 03:34:00;;;;;;;8.60;6.07;;;;;;;;;;5014644;28;20065;-67
2022/06/05 03:36:26;;;;;;;8.60;5.97;;;;;;;;;;5015276;28;20022;-67
2022/06/05 03:38:53;;;;;;;8.00;6.40;;;;;;;;;;5015186;28;20018;-67
2022/06/05 03:41:19;;;;;;;9.65;5.80;;;;;;;;;;5014969;28;20108;-67
2022/06/05 03:43:46;;;;;;;9.00;6.22;;;;;;;;;;5014935;28;20033;-66
2022/06/05 03:46:13;;;;;;;11.98;6.40;;;;;;;;;;5015162;28;20038;-67
2022/06/05 03:48:40;;;;;;;8.68;6.00;;;;;;;;;;5014928;28;20022;-67
2022/06/05 03:51:10;;;;;;;12.18;6.00;;;;;;;;;;5014822;28;20034;-68
2022/06/05 03:53:36;;;;;;;8.73;5.40;;;;;;;;;;5014684;28;20034;-68
2022/06/05 03:56:07;;;;;;;7.78;5.78;;;;;;;;;;5014738;28;20084;-68
2022/06/05 03:58:33;;;;;;;9.93;6.07;;;;;;;;;;5014834;28;20018;-68
2022/06/05 04:00:59;;;;;;;12.43;7.07;;;;;;;;;;5014803;28;20026;-68
2022/06/05 04:03:25;;;;;;;10.30;6.68;;;;;;;;;;5014790;28;20029;-68
2022/06/05 04:05:51;;;;;;;9.60;6.05;;;;;;;;;;5014520;28;20120;-68
2022/06/05 04:08:17;;;;;;;11.90;6.55;;;;;;;;;;5014699;28;20030;-68
2022/06/05 04:10:44;;;;;;;9.05;7.03;;;;;;;;;;5014412;28;20018;-68
2022/06/05 04:13:10;;;;;;;7.88;6.20;;;;;;;;;;5014762;28;20050;-68
2022/06/05 04:15:40;;;;;;;9.63;6.55;;;;;;;;;;5014373;28;20028;-68
2022/06/05 04:18:06;;;;;;;9.40;6.50;;;;;;;;;;5014334;28;20022;-68
2022/06/05 04:20:32;;;;;;;9.13;6.05;;;;;;;;;;5014195;28;20494;-68
2022/06/05 04:22:59;;;;;;;12.85;6.22;;;;;;;;;;5014211;28;20485;-68
2022/06/05 04:25:25;;;;;;;12.77;6.50;;;614.70;2432.00;;;;;;5013847;28;20053;-69
2022/06/05 04:27:51;;;;;;;8.45;5.80;;;614.70;2432.00;;;;;;5014477;28;20029;-68
2022/06/05 04:30:18;;;;;;;11.07;6.13;;;614.80;2432.00;;;;;;5014306;28;20072;-68
2022/06/05 04:32:44;;;;;;;8.82;6.00;;;614.80;2432.00;;;;;;5014408;28;20091;-69
2022/06/05 04:35:10;;;;;;;7.90;6.13;;;614.80;2432.00;;;;;;5013937;28;20428;-68
2022/06/05 04:37:36;;;;;;;8.68;6.05;;;614.80;2432.00;;;;;;5014054;28;20502;-68
2022/06/05 04:40:04;;;;;;;9.02;6.28;;;614.80;2432.00;;;;;;5013968;28;20026;-68
2022/06/05 04:42:30;;;;;;;8.48;6.05;;;614.80;2432.00;;;;;;5013889;28;20022;-67
2022/06/05 04:44:57;;;;;;;7.07;5.50;;;614.80;2432.00;;;;;;5013942;28;20113;-67
2022/06/05 04:47:22;;;;;;;10.13;5.63;;;614.80;2432.00;;;;;;5017890;28;20030;-67
2022/06/05 04:49:48;;;;;;;6.80;5.60;;;614.80;2432.00;;;;;;5013741;28;20028;-67
2022/06/05 04:52:14;;;;;;;10.85;5.93;;;614.80;2432.00;;;;;;5014181;28;20025;-67
2022/06/05 04:54:40;;;;;;;9.32;6.25;;;615.00;2432.00;;;;;;5013613;28;20496;-67
2022/06/05 04:57:05;;;;;;;8.95;6.10;;;615.00;2432.00;;;;;;5013667;28;20026;-68
2022/06/05 04:59:32;;;;;;;8.13;6.05;;;;;;;;;;5013592;28;20080;-67
2022/06/05 05:01:58;;;;;;;8.63;5.72;;;615.30;2432.00;;;;;;5013501;28;20113;-67
2022/06/05 05:04:24;;;;;;;12.00;7.32;;;;;;;;;;5013648;28;20106;-67
2022/06/05 05:06:50;;;;;;;9.10;6.03;;;;;;;;;;5013470;28;20029;-67
2022/06/05 05:09:16;;;;;;;9.23;6.57;;;;;;;;;;5013653;28;20018;-67
2022/06/05 05:11:43;;;;;;;8.68;6.78;;;;;;;;;;5013185;28;20065;-67
2022/06/05 05:14:09;;;;;;;11.57;7.40;;;;;;;;;;5013598;28;20037;-67
2022/06/05 05:16:35;;;;;;;9.18;6.32;;;;;;;;;;5013519;28;20033;-67
2022/06/05 05:19:01;;;;;;;7.82;6.38;;;;;;;;;;5013342;28;20033;-67
2022/06/05 05:21:27;;;;;;;11.60;6.28;;;;;;;;;;5013552;28;20469;-67
2022/06/05 05:23:54;;;;;;;10.02;6.15;;;;;;;;;;5012925;28;20439;-67
2022/06/05 05:26:23;;;;;;;10.77;6.60;;;;;;;;;;5013079;28;20041;-67
2022/06/05 05:28:49;;;;;;;17.02;7.90;;;;;;;;;;5013243;28;20026;-67
2022/06/05 05:31:18;;;;;;;14.50;6.65;;;;;;;;;;5013554;28;20030;-68
2022/06/05 05:33:44;;;;;;;10.93;7.15;;;;;;;;;;5013312;28;20022;-68
2022/06/05 05:36:11;;;;;;;11.32;7.22;;;;;;;;;;5013290;28;20018;-68
2022/06/05 05:38:37;;;;;;;9.43;7.00;;;;;;;;;;5013150;28;20499;-68
2022/06/05 05:43:48;;;;;;;9.80;6.78;;;;;;;;;;5013052;28;20040;-68
2022/06/05 05:46:15;;;;;;;14.70;7.10;;;;;;;;;;5001814;28;20037;-68
2022/06/05 05:48:41;;;;;;;9.48;6.50;;;;;;;;;;5026976;28;20037;-68
2022/06/05 05:51:11;;;;;;;13.00;6.63;;;;;;;;;;5013049;28;20038;-67
2022/06/05 05:53:37;;;;;;;8.88;6.70;;;;;;;;;;5012898;28;20026;-68
2022/06/05 05:56:07;;;;;;;12.88;6.97;;;;;;;;;;5017418;28;20025;-68
2022/06/05 05:58:33;;;;;;;11.52;6.82;;;;;;;;;;5031072;28;20049;-69
2022/06/05 06:01:03;;;;;;;9.15;6.07;;;;;;;;;;5032583;28;20030;-66
2022/06/05 06:03:29;;;;;;;11.13;6.93;;;;;;;;;;5027035;28;20077;-66
2022/06/05 06:05:56;;;;;;;11.43;7.43;;;;;;;;;;5016617;28;20548;-67
2022/06/05 06:08:23;;;;;;;9.05;7.00;;;;;;;;;;5016731;28;20030;-67
2022/06/05 06:10:49;;;;;;;7.10;6.22;;;;;;;;;;5016685;28;20036;-66
2022/06/05 06:13:15;;;;;;;11.02;7.00;;;;;;;;;;5016635;28;20026;-67
2022/06/05 06:15:41;;;;;;;8.98;6.25;;;;;;;;;;5022639;28;20029;-67
2022/06/05 06:18:07;;;;;;;9.88;6.78;;;;;;;;;;5029143;28;20107;-68
2022/06/05 06:20:33;;;;;;;9.40;6.95;;;;;;;;;;5031559;28;20025;-67
2022/06/05 06:22:59;;;;;;;13.40;6.82;;;;;;;;;;5016380;28;20499;-68
2022/06/05 06:25:25;;;;;;;10.18;7.15;;;;;;;;;;5016155;28;20061;-69
2022/06/05 06:27:51;;;;;;;10.57;6.80;;;;;;;;;;5016530;28;20026;-68
2022/06/05 06:30:18;;;;;;;14.20;7.05;;;;;;;;;;5016358;28;20030;-67
2022/06/05 06:32:44;;;;;;;9.52;6.35;;;;;;;;;;5035668;28;20022;-65
2022/06/05 06:35:10;;;;;;;8.70;6.25;;;;;;;;;;5035463;28;20021;-67
2022/06/05 06:37:36;;;;;;;6.30;5.28;;;;;;;;;;5035702;28;20055;-67
2022/06/05 06:40:02;;;;;;;8.75;5.97;;;;;;;;;;5035276;28;20048;-67
2022/06/05 06:42:28;;;;;;;9.32;5.85;;;;;;;;;;5035767;28;20120;-68
2022/06/05 06:44:56;;;;;;;13.25;6.82;;;;;;;;;;5035860;28;20109;-68
2022/06/05 06:47:22;;;;;;;10.13;5.72;;;;;;;;;;5036014;28;20475;-68
2022/06/05 06:49:48;;;;;;;10.68;6.18;;;;;;;;;;5035875;28;20030;-69
2022/06/05 06:52:14;;;;;;;14.55;6.18;;;;;;;;;;5035744;28;20026;-68
2022/06/05 06:54:40;;;;;;;15.20;6.93;;;;;;;;;;5034680;28;20063;-68
2022/06/05 06:57:07;;;;;;;15.15;6.60;;;;;;;;;;5025953;28;20064;-68
2022/06/05 06:59:34;;;;;;;28.80;7.63;;;;;;;;;;5016144;28;20100;-68
2022/06/05 07:02:00;;;;;;;14.23;5.75;;;;;;;;;;5026117;28;20510;-67
2022/06/05 07:04:26;;;;;;;19.58;8.00;;;;;;;;;;5035564;28;20148;-67
2022/06/05 07:06:52;;;;;;;14.02;7.60;;;;;;;;;;5035196;28;20041;-65
2022/06/05 07:09:18;;;;;;;10.55;6.32;;;;;;;;;;5033896;28;20029;-68
2022/06/05 07:11:44;;;;;;;21.30;7.38;;;;;;;;;;5044875;28;20040;-68
2022/06/05 07:14:11;;;;;;;12.23;6.82;;;;;;;;;;5041758;28;20029;-67
2022/06/05 07:16:38;;;;;;;19.48;6.35;;;;;;;;;;5035347;28;20021;-68
2022/06/05 07:19:04;;;;;;;16.92;5.93;;;;;;;;;;5035310;28;20029;-68
2022/06/05 07:21:31;;;;;;;13.57;6.93;;;;;;;;;;5035120;28;20475;-68
2022/06/05 07:23:58;;;;;;;8.63;6.50;;;;;;;;;;5034688;28;20045;-68
2022/06/05 07:26:26;;;;;;;12.40;6.68;;;;;;;;;;5017209;28;20045;-68
2022/06/05 07:28:53;;;;;;;25.73;7.57;;;;;;;;;;5035149;28;20380;-68
2022/06/05 07:31:20;;;;;;;19.25;6.90;;;;;;;;;;5035560;28;20018;-68
2022/06/05 07:33:46;;;;;;;12.20;6.65;;;;;;;;;;5035042;28;20018;-68
2022/06/05 07:36:13;;;;;;;13.43;6.40;;;;;;;;;;5034757;28;20033;-68
2022/06/05 07:38:40;;;;;;;10.15;6.80;;;;;;;;;;5034673;28;20044;-68
2022/06/05 07:41:07;;;;;;;12.32;5.78;;;;;;;;;;5034753;28;20550;-68
2022/06/05 07:43:34;;;;;;;16.88;6.97;;;;;;;;;;5034915;28;20026;-68
2022/06/05 07:46:04;;;;;;;10.85;5.35;;;;;;;;;;5034713;28;20483;-68
2022/06/05 07:48:30;;;;;;;10.70;6.68;;;;;;;;;;5034202;28;20033;-68
2022/06/05 07:56:34;;;;;;;8.23;5.88;;;;;;;;;;5034771;28;20076;-68
2022/06/05 07:59:00;;;;;;;11.48;6.45;;;;;;;;;;5034380;28;20464;-68
2022/06/05 08:01:26;;;;;;;15.60;7.18;;;;;;;;;;5016134;28;20042;-68
2022/06/05 08:03:53;;;;;;;14.18;6.05;;;;;;;;;;5034237;28;20075;-68
2022/06/05 08:06:19;;;;;;;12.40;6.10;;;;;;;;;;5034232;28;20032;-68
2022/06/05 08:08:45;;;;;;;18.10;6.03;;;;;;;;;;5034349;28;20029;-68
2022/06/05 08:11:11;;;;;;;11.20;6.00;;;;;;;;;;5034151;28;20029;-68
2022/06/05 08:13:37;;;;;;;11.52;7.00;;;;;;;;;;5034284;28;20495;-68
2022/06/05 08:16:03;;;;;;;12.35;6.30;;;;;;;;;;5034169;28;20030;-68
2022/06/05 08:18:29;;;;;;;10.68;5.28;;;;;;;;;;5034188;28;20041;-68
2022/06/05 08:20:56;;;;;;;24.85;7.03;;;;;;;;;;5034380;28;20108;-68
2022/06/05 08:23:23;;;;;;;10.35;6.65;;;;;;;;;;5033649;28;20091;-68
2022/06/05 08:25:49;;;;;;;8.45;5.65;;;;;;;;;;5034193;28;20361;-68
2022/06/05 08:28:16;;;;;;;16.60;6.53;;;;;;;;;;5033987;28;20028;-67
2022/06/05 08:30:42;;;;;;;8.88;6.07;;;;;;;;;;5033918;28;20021;-68
2022/06/05 08:33:11;;;;;;;9.40;6.68;;;;;;;;;;5033754;28;20025;-68
2022/06/05 08:35:38;;;;;;;8.60;5.88;;;;;;;;;;5016228;28;20032;-68
2022/06/05 08:43:53;;;;;;;7.15;5.80;;;;;;;;;;5033921;28;20043;-68
2022/06/05 08:46:27;;;;;;;6.47;5.70;;;;;;;;;;5033517;28;20051;-68
2022/06/05 08:49:04;;;;;;;8.45;5.32;;;;;;;;;;5033521;28;20540;-68
2022/06/05 08:51:39;;;;;;;28.23;7.30;;;;;;;;;;5033677;28;20076;-68
2022/06/05 08:54:14;;;;;;;7.85;5.15;;;;;;;;;;5033724;28;20033;-68
2022/06/05 08:56:42;;;;;;;8.45;5.65;;;;;;;;;;5015881;28;20029;-68
2022/06/05 08:59:14;;;;;;;6.93;5.97;;;;;;;;;;5033347;28;20112;-68
2022/06/05 09:01:45;;;;;;;15.07;6.78;;;;;;;;;;5033307;28;20033;-68
2022/06/05 09:04:17;;;;;;;11.07;5.28;;;;;;;;;;5033309;28;20965;-68
2022/06/05 09:06:49;;;;;;;11.15;6.30;;;;;;;;;;5032978;28;20139;-68
2022/06/05 09:09:21;;;;;;;6.53;5.63;;;;;;;;;;5033153;28;20105;-68
2022/06/05 09:12:03;;;;;;;10.65;5.75;;;;;;;;;;5033168;28;20025;-68
2022/06/05 09:14:29;;;;;;;9.88;5.25;;;;;;;;;;5033057;28;20045;-69
2022/06/05 09:16:58;;;;;;;9.52;6.00;;;;;;;;;;5033325;28;20037;-68
2022/06/05 09:19:26;;;;;;;7.72;5.45;;;;;;;;;;5033016;28;20025;-68
2022/06/05 09:21:52;;;;;;;12.45;6.13;;;;;;;;;;5033344;28;20502;-68
2022/06/05 09:24:27;;;;;;;7.53;4.80;;;;;;;;;;5032784;28;20060;-69
2022/06/05 09:26:53;;;;;;;10.57;4.75;;;;;;;;;;5032993;28;20033;-68
2022/06/05 09:29:29;;;;;;;12.80;5.65;;;;;;;;;;5033001;28;20025;-68
2022/06/05 09:32:04;;;;;;;9.80;5.40;;;;;;;;;;5032301;28;20052;-67
2022/06/05 09:34:34;;;;;;;10.00;4.15;;;;;;;;;;5032951;28;20034;-68
2022/06/05 09:37:20;;;;;;;13.10;4.85;;;;;;;;;;5032714;28;20028;-68
2022/06/05 09:39:50;;;;;;;9.70;5.65;;;;;;;;;;5032823;28;20032;-68
2022/06/05 09:42:25;;;;;;;7.90;4.22;;;;;;;;;;5032837;28;20029;-68
2022/06/05 09:45:12;;;;;;;7.82;5.65;;;;;;;;;;5032701;28;20029;-68
2022/06/05 09:47:54;;;;;;;10.07;4.30;;;;;;;;;;5032581;28;20045;-68
2022/06/05 09:50:22;;;;;;;7.93;4.15;;;;;;;;;;5032834;28;20068;-68
2022/06/05 09:52:49;;;;;;;5.70;4.60;;;;;;;;;;5032524;28;20064;-67
2022/06/05 09:55:19;;;;;;;10.32;4.55;;;;;;;;;;5032480;28;20026;-68
2022/06/05 10:00:38;;;;;;;5.80;4.35;;;;;;;;;;5032667;28;20045;-68
2022/06/05 10:03:06;;;;;;;14.73;5.95;;;;;;;;;;5032576;28;20038;-68
2022/06/05 10:05:34;;;;;;;15.20;5.28;;;;;;;;;;5032316;28;20044;-68
2022/06/05 10:08:06;;;;;;;10.02;5.07;;;;;;;;;;5032569;28;20021;-68
2022/06/05 10:10:37;;;;;;;10.77;4.80;;;;;;;;;;5032598;28;20456;-69
2022/06/05 10:13:12;;;;;;;13.10;4.90;;;;;;;;;;5032545;28;20494;-68
2022/06/05 10:15:44;;;;;;;7.78;3.75;;;;;;;;;;5032549;28;20090;-68
2022/06/05 10:18:12;;;;;;;18.60;5.25;;;;;;;;;;5032363;28;20101;-68
2022/06/05 10:20:41;;;;;;;13.20;4.95;;;;;;;;;;5032640;28;20052;-68
2022/06/05 10:23:10;;;;;;;14.32;4.60;;;;;;;;;;5032263;28;20026;-68
2022/06/05 10:25:37;;;;;;;13.55;4.57;;;;;;;;;;5032444;28;20042;-69
2022/06/05 10:28:16;;;;;;;11.82;4.80;;;;;;;;;;5032505;28;20017;-68
2022/06/05 10:30:56;;;;;;;11.57;4.57;;;;;;;;;;5032343;28;20057;-68
2022/06/05 10:33:41;;;;;;;10.68;4.68;;;;;;;;;;5032369;28;20021;-68
2022/06/05 10:36:13;;;;;;;8.50;4.57;;;;;;;;;;5032401;28;20033;-68
2022/06/05 10:38:43;;;;;;;8.48;4.28;;;;;;;;;;5032504;28;20030;-68
2022/06/05 10:41:35;;;;;;;8.68;4.57;;;;;;;;;;5014951;28;20033;-68
2022/06/05 10:44:30;;;;;;;6.47;3.45;;;;;;;;;;5028776;28;20470;-68
2022/06/05 10:47:07;;;;;;;12.95;4.60;;;;;;;;;;4955334;29;20047;-68
2022/06/05 10:49:33;;;;;;;8.45;4.57;;;;;;;;;;4955548;29;20030;-68
2022/06/05 10:52:28;;;;;;;8.48;5.00;;;;;;;;;;4955358;29;20039;-68
2022/06/05 10:54:55;;;;;;;13.15;4.70;;;;;;;;;;4898164;29;20045;-68
2022/06/05 10:57:21;;;;;;;9.10;4.18;;;;;;;;;;4898437;29;20068;-68
2022/06/05 10:59:54;;;;;;;10.57;4.15;;;;;;;;;;4898309;29;20460;-68
2022/06/05 11:02:29;;;;;;;8.05;4.60;;;;;;;;;;4898205;29;20119;-68
2022/06/05 11:05:14;;;;;;;8.30;4.20;;;;;;;;;;4898152;29;20060;-68
2022/06/05 11:07:48;;;;;;;8.40;4.05;;;;;;;;;;4898302;29;20033;-68
2022/06/05 11:13:42;;;;;;;9.55;4.40;;;;;;;;;;4898454;29;20032;-68
2022/06/05 11:16:25;;;;;;;7.53;4.47;;;;;;;;;;4898096;29;20067;-68
2022/06/05 11:18:54;;;;;;;5.13;3.97;;;;;;;;;;4898146;29;20052;-68
2022/06/05 11:21:22;;;;;;;6.72;4.30;;;;;;;;;;4897990;29;20516;-68
2022/06/05 11:23:50;;;;;;;7.68;4.45;;;;;;;;;;4937177;29;20050;-68
2022/06/05 11:26:38;;;;;;;6.13;4.90;;;;;;;;;;4954720;29;20039;-67
2022/06/05 11:29:10;;;;;;;6.22;3.90;;;;;;;;;;4955014;29;20035;-68
2022/06/05 11:31:36;;;;;;;5.15;3.63;;;;;;;;;;5004774;28;20111;-68
2022/06/05 11:34:20;;;;;;;16.80;5.03;;;;;;;;;;5035417;28;20057;-69
2022/06/05 11:36:50;;;;;;;10.15;3.97;;;;;;;;;;5035026;28;20078;-69
2022/06/05 11:39:16;;;;;;;7.55;3.92;;;;;;;;;;5017056;28;20028;-69
2022/06/05 11:41:51;;;;;;;6.97;4.50;;;;;;;;;;5035058;28;20025;-68
2022/06/05 11:44:21;;;;;;;5.93;3.33;;;;;;;;;;5034597;28;20029;-68
2022/06/05 11:47:07;;;;;;;6.00;3.80;;;;;;;;;;5034563;28;20033;-68
2022/06/05 11:49:52;;;;;;;8.40;4.28;;;;;;;;;;5034757;28;20031;-68
2022/06/05 11:52:18;;;;;;;9.73;4.90;;;;;;;;;;5034547;28;20368;-69
2022/06/05 11:54:59;;;;;;;6.28;4.03;;;;;;;;;;5034049;28;20025;-68
2022/06/05 11:57:29;;;;;;;6.00;4.38;;;;;;;;;;5034627;28;20029;-68
2022/06/05 11:59:58;;;;;;;20.83;5.10;;;;;;;;;;5034622;28;20026;-68
2022/06/05 12:02:24;;;;;;;5.20;3.90;;;;;;;;;;5034506;28;20025;-68
2022/06/05 12:05:09;;;;;;;9.45;4.10;;;;;;;;;;5034296;28;20029;-68
2022/06/05 12:07:35;;;;;;;7.75;3.72;;;;;;;;;;5034014;28;20083;-68
2022/06/05 12:10:17;;;;;;;10.05;4.45;;;;;;;;;;5034225;28;20101;-68
2022/06/05 12:12:56;;;;;;;13.68;4.75;;;;;;;;;;5034327;28;20357;-68
2022/06/05 12:15:25;;;;;;;9.32;4.47;;;;;;;;;;5034217;28;20033;-69
2022/06/05 12:17:57;;;;;;;8.13;4.43;;;;;;;;;;5033969;28;20034;-68
2022/06/05 12:20:35;;;;;;;7.95;4.50;;;;;;;;;;5034177;28;20067;-68
2022/06/05 12:23:09;;;;;;;7.28;4.30;;;;;;;;;;5033802;28;20053;-68
2022/06/05 12:25:48;;;;;;;7.63;4.60;;;;;;;;;;5033761;28;20063;-68
2022/06/05 12:28:20;;;;;;;10.50;5.53;;;;;;;;;;5034162;28;20022;-68
2022/06/05 12:30:57;;;;;;;10.40;4.10;;;;;;;;;;5033834;28;20034;-68
2022/06/05 12:33:37;;;;;;;8.27;4.75;;;;;;;;;;5033798;28;20056;-68
2022/06/05 12:36:11;;;;;;;6.83;4.10;;;;;;;;;;5033910;28;20051;-68
2022/06/05 12:39:13;;;;;;;8.90;4.88;;;;;;;;;;5016152;28;20256;-68
2022/06/05 12:41:43;;;;;;;6.90;4.07;;;;;;;;;;4953831;29;20110;-68
2022/06/05 12:44:30;;;;;;;6.53;4.47;;;;;;;;;;4953588;29;20489;-68
2022/06/05 12:47:02;;;;;;;7.10;4.55;;;;;;;;;;4953462;29;20370;-68
2022/06/05 12:49:31;;;;;;;7.80;5.07;;;;;;;;;;4953261;29;20031;-67
2022/06/05 12:51:57;;;;;;;6.38;4.78;;;;;;;;;;4953350;29;20039;-68
2022/06/05 12:54:26;;;;;;;7.47;4.80;;;;;;;;;;4953087;29;20098;-68
2022/06/05 12:56:55;;;;;;;6.18;4.30;;;;;;;;;;4953354;29;20071;-68
2022/06/05 12:59:30;;;;;;;6.75;3.80;;;;;;;;;;4937083;29;20510;-68
2022/06/05 13:01:59;;;;;;;7.78;4.63;;;;;;;;;;4953292;29;20183;-68
2022/06/05 13:04:51;;;;;;;6.60;4.43;;;;;;;;;;4953259;29;20027;-68
2022/06/05 13:07:35;;;;;;;16.35;5.60;;;;;;;;;;4931005;28;20055;-68
2022/06/05 13:10:07;;;;;;;5.55;3.90;;;;;;;;;;4936854;29;20474;-68
2022/06/05 13:12:37;;;;;;;10.38;4.72;;;;;;;;;;4936967;29;20035;-68
2022/06/05 13:15:07;;;;;;;13.40;5.50;;;;;;;;;;4975363;28;20388;-68
2022/06/05 13:17:51;;;;;;;8.73;5.03;;;;;;;;;;5033163;28;20064;-68
2022/06/05 13:20:17;;;;;;;9.27;4.90;;;;;;;;;;5033115;28;20065;-68
2022/06/05 13:22:54;;;;;;;9.90;4.97;;;;;;;;;;5033057;28;20021;-68
2022/06/05 13:25:59;;;;;;;8.40;5.15;;;;;;;;;;5032434;28;20050;-68
2022/06/05 13:28:26;;;;;;;11.20;4.60;;;;;;;;;;4952548;29;20566;-68
2022/06/05 13:31:07;;;;;;;5.95;4.45;;;;;;;;;;4952899;29;20027;-68
2022/06/05 13:33:42;;;;;;;12.25;4.70;;;;;;;;;;4952673;29;20098;-68
2022/06/05 13:36:17;;;;;;;10.45;4.70;;;;;;;;;;4952747;29;20027;-68
2022/06/05 13:38:58;;;;;;;8.07;4.82;;;;;;;;;;4952678;29;20503;-68
2022/06/05 13:41:31;;;;;;;8.43;5.25;;;;;;;;;;4952806;29;20030;-68
2022/06/05 13:44:02;;;;;;;14.27;4.75;;;;;;;;;;4952748;29;20063;-68
2022/06/05 13:46:33;;;;;;;27.48;6.28;;;;;;;;;;4952490;29;20122;-68
2022/06/05 13:48:59;;;;;;;10.57;5.07;;;;;;;;;;4952685;29;20034;-68
2022/06/05 13:51:25;;;;;;;9.75;4.45;;;;;;;;;;4952719;29;20035;-68
2022/06/05 13:54:16;;;;;;;9.93;4.18;;;;;;;;;;4952348;29;20043;-68
2022/06/05 13:56:56;;;;;;;9.23;4.78;;;;;;;;;;4879765;29;20041;-68
2022/06/05 13:59:26;;;;;;;6.95;4.45;;;;;;;;;;4929535;29;20031;-68
2022/06/05 14:02:21;;;;;;;6.20;4.80;;;;;;;;;;4952494;29;20125;-68
2022/06/05 14:04:56;;;;;;;11.52;4.85;;;;;;;;;;4940274;29;20118;-68
2022/06/05 14:07:24;;;;;;;10.20;4.82;;;;;;;;;;4952387;29;20975;-68
2022/06/05 14:09:51;;;;;;;6.65;5.20;;;;;;;;;;4952326;29;20051;-67
2022/06/05 14:12:29;;;;;;;9.40;4.70;;;;;;;;;;4952491;29;20035;-68
2022/06/05 14:14:56;;;;;;;6.72;4.38;;;;;;;;;;4952459;28;20498;-68
2022/06/05 14:17:27;;;;;;;21.33;4.93;;;;;;;;;;4952547;29;20050;-68
2022/06/05 14:19:59;;;;;;;11.93;4.70;;;;;;;;;;4955508;28;20118;-68
2022/06/05 14:22:26;;;;;;;6.30;3.90;;;;;;;;;;4956085;29;20119;-68
2022/06/05 14:24:53;;;;;;;7.13;4.78;;;;;;;;;;4955444;29;20134;-69
2022/06/05 14:27:30;;;;;;;6.63;4.63;;;;;;;;;;4955966;29;20487;-68
2022/06/05 14:29:58;;;;;;;5.45;4.45;;;;;;;;;;4956095;29;20042;-68
2022/06/05 14:32:26;;;;;;;9.73;4.88;;;;;;;;;;4955730;29;20406;-68
2022/06/05 14:35:12;;;;;;;8.43;4.50;;;;;;;;;;5036081;28;20484;-68
2022/06/05 14:37:45;;;;;;;12.77;5.35;;;;;;;;;;5036144;28;20021;-68
2022/06/05 14:40:14;;;;;;;9.55;5.03;;;;;;;;;;5018167;28;20448;-68
2022/06/05 14:42:46;;;;;;;11.15;5.78;;;;;;;;;;5035919;28;20040;-68
2022/06/05 14:45:18;;;;;;;7.85;4.90;;;;;;;;;;5035830;28;20030;-68
2022/06/05 14:48:04;;;;;;;11.75;5.10;;;;;;;;;;5035763;28;20035;-68
2022/06/05 14:50:34;;;;;;;13.07;5.35;;;;;;;;;;5035861;28;20044;-67
2022/06/05 14:53:06;;;;;;;7.30;4.65;;;;;;;;;;5036086;28;20029;-68
2022/06/05 14:58:58;;;;;;;11.50;4.38;;;;;;;;;;4974888;28;20096;-68
2022/06/05 15:01:43;;;;;;;10.25;5.13;;;;;;;;;;4958557;28;20031;-68
2022/06/05 15:04:38;;;;;;;6.38;4.93;;;;;;;;;;4974736;28;20064;-68
2022/06/05 15:07:21;;;;;;;8.70;5.13;;;;;;;;;;4917006;29;20123;-68
2022/06/05 15:09:53;;;;;;;8.38;5.85;;;;;;;;;;4901353;29;20036;-68
2022/06/05 15:12:22;;;;;;;7.72;5.00;;;;;;;;;;4917010;29;20044;-68